Time;durP1;ratioP1;P1;durP2;ratioP2;P2;SDS_P1;SDS_P2;PMS_P1;PMS_P2;Temp;Humidity;BMP_temperature;BMP_pressure;BME280_temperature;BME280_humidity;BME280_pressure;Samples;Min_cycle;Max_cycle;Signal;HPM_P1;HPM_P2
2023/05/03 00:01:22;;;;;;;;;;;;;;;14.59;100.00;99521.66;4165140;34;34784;-80
2023/05/03 00:03:53;;;;;;;;;;;;;;;14.68;100.00;99514.44;4165041;34;33416;-77
2023/05/03 00:06:21;;;;;;;;;;;;;;;14.53;100.00;99511.28;4152922;34;34212;-80
2023/05/03 00:08:49;;;;;;;;;;;;;;;14.26;100.00;99511.91;4165071;34;36269;-81
2023/05/03 00:11:17;;;;;;;;;;;;;;;14.35;100.00;99504.72;4165020;34;34768;-81
2023/05/03 00:13:44;;;;;;;;;;;;;;;14.65;100.00;99512.78;4165383;34;34139;-80
2023/05/03 00:16:12;;;;;;;;;;;;;;;14.86;100.00;99516.62;4165152;34;34190;-81
2023/05/03 00:18:40;;;;;;;;;;;;;;;14.61;100.00;99516.34;4164986;34;36237;-78
2023/05/03 00:21:08;;;;;;;;;;;;;;;14.41;100.00;99507.19;4164809;34;35510;-81
2023/05/03 00:23:36;;;;;;;;;;;;;;;14.77;100.00;99517.72;4165089;34;33500;-81
2023/05/03 00:26:04;;;;;;;;;;;;;;;14.75;100.00;99510.78;4164996;34;34504;-80
2023/05/03 00:28:31;;;;;;;;;;;;;;;14.41;100.00;99508.94;4164943;34;35366;-80
2023/05/03 00:31:08;;;;;;;;;;;;;;;14.31;100.00;99516.19;4164985;34;35352;-81
2023/05/03 00:33:37;;;;;;;;;;;;;;;14.54;100.00;99515.63;4165116;34;33662;-81
2023/05/03 00:36:08;;;;;;;;;;;;;;;14.48;100.00;99509.66;4164947;34;34185;-81
2023/05/03 00:38:37;;;;;;;;;;;;;;;14.52;100.00;99508.69;4164926;34;35490;-82
2023/05/03 00:41:05;;;;;;;;;;;;;;;14.28;100.00;99511.00;4164948;34;34723;-81
2023/05/03 00:43:34;;;;;;;;;;;;;;;14.76;100.00;99512.50;4152706;34;33632;-80
2023/05/03 00:46:02;;;;;;;;;;;;;;;14.54;100.00;99507.78;4164893;34;34388;-80
2023/05/03 00:48:43;;;;;;;;;;;;;;;14.61;100.00;99516.34;4153865;34;36238;-81
2023/05/03 00:51:12;;;;;;;;;;;;;;;14.72;100.00;99516.13;4164838;34;35345;-76
2023/05/03 00:53:40;;;;;;;;;;;;;;;14.68;100.00;99520.56;4152535;34;33450;-81
2023/05/03 00:56:08;;;;;;;;;;;;;;;14.69;100.00;99524.06;4152571;34;35253;-80
2023/05/03 00:58:38;;;;;;;;;;;;;;;14.46;100.00;99525.44;4164697;34;35238;-80
2023/05/03 01:01:07;;;;;;;;;;;;;;;14.16;100.00;99532.22;4152917;34;34323;-81
2023/05/03 01:03:36;;;;;;;;;;;;;;;14.27;100.00;99534.59;4152643;34;33404;-81
2023/05/03 01:06:16;;;;;;;;;;;;;;;14.47;100.00;99532.41;4152588;34;34098;-81
2023/05/03 01:09:05;;;;;;;;;;;;;;;14.59;100.00;99537.38;4164659;34;35442;-81
2023/05/03 01:11:37;;;;;;;;;;;;;;;14.61;100.00;99537.31;4152492;34;34804;-76
2023/05/03 01:14:21;;;;;;;;;;;;;;;14.65;100.00;99535.47;4152573;34;33467;-82
2023/05/03 01:16:52;;;;;;;;;;;;;;;14.69;100.00;99539.78;4152437;34;34203;-81
2023/05/03 01:19:37;;;;;;;;;;;;;;;14.38;100.00;99538.72;4151938;34;35252;-81
2023/05/03 01:22:08;;;;;;;;;;;;;;;14.28;100.00;99541.59;4152246;34;35238;-78
2023/05/03 01:24:37;;;;;;;;;;;;;;;14.22;100.00;99542.56;4152251;34;33701;-81
2023/05/03 01:27:05;;;;;;;;;;;;;;;14.21;100.00;99536.47;4152414;34;33424;-80
2023/05/03 01:29:33;;;;;;;;;;;;;;;14.57;100.00;99539.13;4152284;34;36240;-80
2023/05/03 01:32:01;;;;;;;;;;;;;;;14.74;100.00;99543.16;4164484;34;35610;-81
2023/05/03 01:34:34;;;;;;;;;;;;;;;14.61;100.00;99534.69;4152271;34;34447;-81
2023/05/03 01:37:03;;;;;;;;;;;;;;;14.49;100.00;99533.22;4164416;34;35201;-81
2023/05/03 01:39:35;;;;;;;;;;;;;;;14.44;100.00;99529.84;4152274;34;36070;-77
2023/05/03 01:42:03;;;;;;;;;;;;;;;14.31;100.00;99536.25;4164443;34;34873;-76
2023/05/03 01:44:30;;;;;;;;;;;;;;;14.46;100.00;99533.28;4152225;34;33483;-81
2023/05/03 01:46:58;;;;;;;;;;;;;;;14.36;100.00;99531.78;4152434;34;34199;-81
2023/05/03 01:49:26;;;;;;;;;;;;;;;14.39;100.00;99529.09;4152063;34;35314;-81
2023/05/03 01:51:54;;;;;;;;;;;;;;;14.47;100.00;99529.78;4164305;34;34662;-81
2023/05/03 01:54:22;;;;;;;;;;;;;;;14.30;100.00;99524.91;4152108;34;34060;-80
2023/05/03 01:56:51;;;;;;;;;;;;;;;14.33;100.00;99522.25;4164080;34;35056;-81
2023/05/03 01:59:20;;;;;;;;;;;;;;;14.39;100.00;99521.22;4152018;34;35273;-81
2023/05/03 02:01:47;;;;;;;;;;;;;;;14.32;100.00;99523.13;4164050;34;35348;-81
2023/05/03 02:04:15;;;;;;;;;;;;;;;14.23;100.00;99523.34;4164355;34;33469;-81
2023/05/03 02:06:43;;;;;;;;;;;;;;;14.18;100.00;99514.72;4164053;34;34215;-78
2023/05/03 02:09:11;;;;;;;;;;;;;;;14.22;100.00;99517.25;4164206;34;35211;-78
2023/05/03 02:11:40;;;;;;;;;;;;;;;14.38;100.00;99511.63;4163972;34;35545;-81
2023/05/03 02:14:07;;;;;;;;;;;;;;;14.49;100.00;99519.22;4163954;34;33441;-81
2023/05/03 02:16:36;;;;;;;;;;;;;;;14.65;100.00;99514.50;4151648;34;34273;-77
2023/05/03 02:19:04;;;;;;;;;;;;;;;14.24;100.00;99509.34;4163638;34;35319;-81
2023/05/03 02:21:34;;;;;;;;;;;;;;;14.21;100.00;99510.28;4151629;34;35603;-76
2023/05/03 02:24:02;;;;;;;;;;;;;;;14.28;100.00;99505.75;4163871;34;33679;-77
2023/05/03 02:26:30;;;;;;;;;;;;;;;14.20;100.00;99502.44;4164010;34;34199;-81
2023/05/03 02:28:58;;;;;;;;;;;;;;;14.17;100.00;99505.13;4163663;34;35450;-81
2023/05/03 02:31:27;;;;;;;;;;;;;;;14.03;100.00;99513.31;4165004;34;35168;-81
2023/05/03 02:33:55;;;;;;;;;;;;;;;14.16;100.00;99506.91;4165952;34;33501;-81
2023/05/03 02:36:22;;;;;;;;;;;;;;;14.17;100.00;99506.00;4165662;34;34331;-76
2023/05/03 02:38:50;;;;;;;;;;;;;;;14.06;100.00;99508.00;4165560;34;35460;-81
2023/05/03 02:41:18;;;;;;;;;;;;;;;13.99;100.00;99509.91;4165683;34;34781;-80
2023/05/03 02:43:46;;;;;;;;;;;;;;;14.28;100.00;99500.53;4165849;34;33438;-81
2023/05/03 02:46:14;;;;;;;;;;;;;;;14.35;100.00;99499.47;4165580;34;35024;-77
2023/05/03 02:48:42;;;;;;;;;;;;;;;14.20;100.00;99492.81;4165480;34;35190;-76
2023/05/03 02:51:10;;;;;;;;;;;;;;;14.22;100.00;99496.31;4165604;34;34628;-81
2023/05/03 02:53:38;;;;;;;;;;;;;;;14.62;100.00;99491.88;4165515;34;34037;-81
2023/05/03 02:56:06;;;;;;;;;;;;;;;14.37;100.00;99496.84;4165626;34;34259;-81
2023/05/03 02:58:34;;;;;;;;;;;;;;;14.20;100.00;99494.59;4165369;34;35311;-81
2023/05/03 03:01:02;;;;;;;;;;;;;;;14.13;100.00;99491.25;4153123;34;33949;-77
2023/05/03 03:03:30;;;;;;;;;;;;;;;14.22;100.00;99495.41;4165610;34;34378;-81
2023/05/03 03:05:58;;;;;;;;;;;;;;;14.08;100.00;99493.09;4165354;34;34414;-81
2023/05/03 03:08:26;;;;;;;;;;;;;;;14.25;100.00;99490.13;4165464;34;35164;-81
2023/05/03 03:10:56;;;;;;;;;;;;;;;14.31;100.00;99492.59;4153632;34;35589;-81
2023/05/03 03:13:23;;;;;;;;;;;;;;;14.37;100.00;99488.97;4165661;34;33602;-80
2023/05/03 03:15:51;;;;;;;;;;;;;;;14.44;100.00;99489.69;4165472;34;35213;-82
2023/05/03 03:18:19;;;;;;;;;;;;;;;14.42;100.00;99489.72;4165552;34;35033;-81
2023/05/03 03:20:47;;;;;;;;;;;;;;;14.16;100.00;99488.56;4165176;34;34666;-81
2023/05/03 03:23:15;;;;;;;;;;;;;;;14.46;100.00;99490.50;4165430;34;33435;-81
2023/05/03 03:25:43;;;;;;;;;;;;;;;14.48;100.00;99492.19;4153345;34;34418;-81
2023/05/03 03:28:10;;;;;;;;;;;;;;;14.33;100.00;99492.53;4165248;34;35419;-80
2023/05/03 03:30:39;;;;;;;;;;;;;;;14.13;100.00;99493.88;4165605;34;34991;-81
2023/05/03 03:33:08;;;;;;;;;;;;;;;14.20;100.00;99497.22;4153233;34;33272;-80
2023/05/03 03:35:36;;;;;;;;;;;;;;;14.19;100.00;99493.75;4153367;34;34943;-80
2023/05/03 03:38:05;;;;;;;;;;;;;;;14.04;100.00;99501.94;4165290;34;35303;-80
2023/05/03 03:40:33;;;;;;;;;;;;;;;14.09;100.00;99499.22;4165547;34;34722;-81
2023/05/03 03:43:01;;;;;;;;;;;;;;;14.40;100.00;99505.47;4165209;34;33344;-81
2023/05/03 03:45:29;;;;;;;;;;;;;;;14.13;100.00;99506.97;4165421;34;34343;-80
2023/05/03 03:47:57;;;;;;;;;;;;;;;14.16;100.00;99500.81;4165512;34;36032;-81
2023/05/03 03:50:27;;;;;;;;;;;;;;;14.11;100.00;99505.28;4165378;34;35493;-80
2023/05/03 03:52:55;;;;;;;;;;;;;;;14.03;100.00;99502.84;4165456;34;33227;-81
2023/05/03 03:55:23;;;;;;;;;;;;;;;14.06;100.00;99508.00;4165207;34;34149;-76
2023/05/03 03:57:51;;;;;;;;;;;;;;;13.95;100.00;99503.00;4165022;34;35337;-77
2023/05/03 04:00:20;;;;;;;;;;;;;;;13.98;100.00;99512.56;4165304;34;35401;-81
2023/05/03 04:02:49;;;;;;;;;;;;;;;14.06;100.00;99513.22;4165415;34;33773;-81
2023/05/03 04:05:17;;;;;;;;;;;;;;;13.81;100.00;99518.16;4165410;34;34998;-81
2023/05/03 04:07:45;;;;;;;;;;;;;;;14.15;100.00;99531.38;4165138;34;35300;-81
2023/05/03 04:10:14;;;;;;;;;;;;;;;14.52;100.00;99530.50;4165113;34;34856;-80
2023/05/03 04:12:42;;;;;;;;;;;;;;;14.35;100.00;99525.69;4159577;34;33435;-80
2023/05/03 04:15:11;;;;;;;;;;;;;;;14.28;100.00;99526.72;4165269;34;35163;-80
2023/05/03 04:17:39;;;;;;;;;;;;;;;14.08;100.00;99540.25;4165178;34;35471;-76
2023/05/03 04:20:12;;;;;;;;;;;;;;;14.19;100.00;99540.03;4165284;34;34556;-77
2023/05/03 04:22:41;;;;;;;;;;;;;;;14.37;100.00;99541.38;4165001;34;34247;-80
2023/05/03 04:25:13;;;;;;;;;;;;;;;14.29;100.00;99543.28;4164280;34;34277;-75
2023/05/03 04:27:42;;;;;;;;;;;;;;;14.45;100.00;99547.28;4166809;34;35297;-75
2023/05/03 04:30:10;;;;;;;;;;;;;;;14.36;100.00;99550.09;4164998;34;35491;-75
2023/05/03 04:32:39;;;;;;;;;;;;;;;14.54;100.00;99544.47;4164435;34;32545;-76
2023/05/03 04:35:09;;;;;;;;;;;;;;;14.51;100.00;99551.53;4164855;34;34229;-75
2023/05/03 04:37:37;;;;;;;;;;;;;;;14.75;100.00;99552.72;4161588;34;36015;-80
2023/05/03 04:40:07;;;;;;;;;;;;;;;14.56;100.00;99552.28;4164382;34;34682;-76
2023/05/03 04:42:35;;;;;;;;;;;;;;;14.37;100.00;99557.94;4152920;34;32707;-75
2023/05/03 04:45:05;;;;;;;;;;;;;;;14.34;100.00;99558.00;4152658;34;35009;-79
2023/05/03 04:47:34;;;;;;;;;;;;;;;14.38;100.00;99554.44;4156376;34;35320;-80
2023/05/03 04:50:03;;;;;;;;;;;;;;;14.41;100.00;99558.72;4170775;34;34925;-84
2023/05/03 04:52:31;;;;;;;;;;;;;;;14.82;100.00;99562.16;4164694;34;33672;-83
2023/05/03 04:54:59;;;;;;;;;;;;;;;15.15;100.00;99573.56;4164147;34;35120;-84
2023/05/03 04:57:28;;;;;;;;;;;;;;;14.98;100.00;99574.00;4164611;34;35329;-85
2023/05/03 04:59:55;;;;;;;;;;;;;;;14.92;100.00;99576.75;4164391;34;34735;-82
2023/05/03 05:02:23;;;;;;;;;;;;;;;14.89;100.00;99576.81;4164758;34;33288;-83
2023/05/03 05:04:52;;;;;;;;;;;;;;;14.68;100.00;99582.59;4164621;34;34549;-81
2023/05/03 05:07:21;;;;;;;;;;;;;;;14.85;100.00;99580.44;4152639;34;36141;-79
2023/05/03 05:09:48;;;;;;;;;;;;;;;14.72;100.00;99579.88;4152211;34;34875;-78
2023/05/03 05:12:17;;;;;;;;;;;;;;;14.93;100.00;99591.59;4164591;34;33525;-83
2023/05/03 05:14:45;;;;;;;;;;;;;;;14.75;100.00;99584.16;4165159;34;35134;-75
2023/05/03 05:17:13;;;;;;;;;;;;;;;14.88;100.00;99590.00;4164640;34;36024;-75
2023/05/03 05:19:41;;;;;;;;;;;;;;;14.83;100.00;99592.72;4167018;34;35577;-75
2023/05/03 05:22:09;;;;;;;;;;;;;;;15.17;100.00;99586.62;4157011;34;250425;-75
2023/05/03 05:24:37;;;;;;;;;;;;;;;15.10;100.00;99588.53;4174255;34;33977;-75
2023/05/03 05:27:06;;;;;;;;;;;;;;;15.22;100.00;99590.00;4164958;34;36091;-75
2023/05/03 05:29:33;;;;;;;;;;;;;;;15.22;100.00;99597.03;4164333;34;35551;-74
2023/05/03 05:32:02;;;;;;;;;;;;;;;15.52;100.00;99598.81;4164330;34;33387;-75
2023/05/03 05:34:32;;;;;;;;;;;;;;;15.50;100.00;99594.53;4164565;34;33453;-77
2023/05/03 05:37:12;;;;;;;;;;;;;;;15.89;100.00;99600.47;4164607;34;35241;-75
2023/05/03 05:39:40;;;;;;;;;;;;;;;16.41;98.12;99600.72;4164231;34;34769;-75
2023/05/03 05:42:08;;;;;;;;;;;;;;;16.23;98.30;99601.25;4164410;34;33518;-83
2023/05/03 05:44:36;;;;;;;;;;;;;;;16.45;94.79;99602.34;4164292;34;35078;-83
2023/05/03 05:47:05;;;;;;;;;;;;;;;16.38;94.62;99606.06;4164574;34;36092;-80
2023/05/03 05:49:35;;;;;;;;;;;;;;;16.76;92.32;99609.25;4152393;34;35502;-82
2023/05/03 05:52:04;;;;;;;;;;;;;;;16.58;92.54;99604.59;4164491;34;34286;-83
2023/05/03 05:54:32;;;;;;;;;;;;;;;16.55;91.90;99612.56;4164477;34;35116;-83
2023/05/03 05:57:00;;;;;;;;;;;;;;;16.54;91.24;99605.59;4164516;34;35361;-83
2023/05/03 05:59:30;;;;;;;;;;;;;;;16.22;93.50;99605.66;4164400;34;34765;-82
2023/05/03 06:01:59;;;;;;;;;;;;;;;16.15;92.81;99614.63;4164312;34;33580;-83
2023/05/03 06:04:27;;;;;;;;;;;;;;;16.06;94.95;99621.00;4152417;34;33957;-83
2023/05/03 06:06:55;;;;;;;;;;;;;;;16.12;93.62;99626.06;4166086;34;35324;-76
2023/05/03 06:09:23;;;;;;;;;;;;;;;15.90;95.96;99622.34;4165919;34;34713;-83
2023/05/03 06:11:52;;;;;;;;;;;;;;;15.82;96.83;99621.69;4153580;34;32809;-82
2023/05/03 06:14:21;;;;;;;;;;;;;;;15.85;96.28;99626.87;4165789;34;34254;-82
2023/05/03 06:16:49;;;;;;;;;;;;;;;15.97;94.78;99626.53;4153632;34;36025;-80
2023/05/03 06:19:18;;;;;;;;;;;;;;;16.10;94.62;99635.78;4165651;34;34711;-81
2023/05/03 06:21:45;;;;;;;;;;;;;;;16.01;97.81;99638.66;4165514;34;34359;-77
2023/05/03 06:24:19;;;;;;;;;;;;;;;15.83;100.00;99640.03;4165924;34;34330;-81
2023/05/03 06:26:49;;;;;;;;;;;;;;;16.40;96.57;99634.94;4166754;34;36291;-82
2023/05/03 06:29:17;;;;;;;;;;;;;;;16.28;96.88;99641.41;4153532;34;35170;-76
2023/05/03 06:31:45;;;;;;;;;;;;;;;16.49;96.73;99651.28;4165799;34;33717;-77
2023/05/03 06:34:15;;;;;;;;;;;;;;;16.24;97.21;99658.16;4165885;34;33991;-82
2023/05/03 06:36:43;;;;;;;;;;;;;;;16.71;96.35;99652.38;4165702;34;35315;-76
2023/05/03 06:39:11;;;;;;;;;;;;;;;16.16;100.00;99654.91;4165629;34;35565;-81
2023/05/03 06:41:39;;;;;;;;;;;;;;;16.73;98.10;99659.34;4165577;34;33140;-82
2023/05/03 06:44:07;;;;;;;;;;;;;;;16.32;98.99;99661.41;4165679;34;34196;-77
2023/05/03 06:46:34;;;;;;;;;;;;;;;16.25;100.00;99665.13;4165484;34;35486;-80
2023/05/03 06:49:03;;;;;;;;;;;;;;;16.26;100.00;99670.34;4165814;34;34795;-76
2023/05/03 06:51:31;;;;;;;;;;;;;;;16.29;100.00;99672.03;4165483;34;33526;-81
2023/05/03 06:54:05;;;;;;;;;;;;;;;16.32;100.00;99674.56;4164527;34;33302;-80
2023/05/03 06:56:33;;;;;;;;;;;;;;;16.24;100.00;99676.56;4165243;34;35493;-77
2023/05/03 06:59:01;;;;;;;;;;;;;;;16.36;100.00;99668.31;4165303;34;35415;-78
2023/05/03 07:01:30;;;;;;;;;;;;;;;16.08;100.00;99674.38;4153517;34;33207;-77
2023/05/03 07:03:58;;;;;;;;;;;;;;;16.51;99.99;99671.41;4165560;34;34364;-78
2023/05/03 07:06:26;;;;;;;;;;;;;;;16.26;100.00;99675.59;4165429;34;35452;-78
2023/05/03 07:08:53;;;;;;;;;;;;;;;16.35;99.23;99663.97;4165523;34;34796;-78
2023/05/03 07:11:24;;;;;;;;;;;;;;;16.61;97.56;99670.22;4153029;34;32671;-77
2023/05/03 07:13:52;;;;;;;;;;;;;;;16.72;98.66;99670.75;4153537;34;34078;-78
2023/05/03 07:16:20;;;;;;;;;;;;;;;16.75;99.71;99664.56;4152634;34;36148;-78
2023/05/03 07:18:48;;;;;;;;;;;;;;;17.31;95.67;99682.06;4153478;34;35570;-79
2023/05/03 07:21:16;;;;;;;;;;;;;;;17.08;92.10;99681.06;4165173;34;34377;-79
2023/05/03 07:23:44;;;;;;;;;;;;;;;17.40;93.55;99671.25;4165287;34;34182;-79
2023/05/03 07:26:12;;;;;;;;;;;;;;;17.75;91.31;99674.44;4165171;34;36289;-76
2023/05/03 07:28:39;;;;;;;;;;;;;;;17.97;88.38;99671.97;4153094;34;34588;-79
2023/05/03 07:31:07;;;;;;;;;;;;;;;17.68;88.73;99672.94;4165288;34;33303;-79
2023/05/03 07:33:36;;;;;;;;;;;;;;;18.37;83.97;99679.28;4142017;34;33565;-76
2023/05/03 07:36:04;;;;;;;;;;;;;;;18.08;86.55;99674.22;4165242;34;36117;-80
2023/05/03 07:38:33;;;;;;;;;;;;;;;18.53;85.58;99676.03;4165219;34;34863;-78
2023/05/03 07:41:02;;;;;;;;;;;;;;;18.80;87.32;99673.28;4165254;34;33530;-79
2023/05/03 07:43:30;;;;;;;;;;;;;;;18.66;86.38;99671.16;4165093;34;34369;-80
2023/05/03 07:45:57;;;;;;;;;;;;;;;19.10;86.31;99672.06;4165049;34;36030;-80
2023/05/03 07:48:25;;;;;;;;;;;;;;;20.57;76.66;99669.25;4153011;34;34851;-76
2023/05/03 07:50:53;;;;;;;;;;;;;;;20.33;76.54;99675.66;4165199;34;33578;-80
2023/05/03 07:53:21;;;;;;;;;;;;;;;20.68;70.91;99676.69;4165297;34;33987;-75
2023/05/03 07:55:52;;;;;;;;;;;;;;;20.41;72.03;99676.19;4165205;34;36014;-81
2023/05/03 07:58:20;;;;;;;;;;;;;;;20.56;71.17;99679.88;4165190;34;35607;-75
2023/05/03 08:01:05;;;;;;;;;;;;;;;20.23;72.05;99680.53;4154749;34;33573;-76
2023/05/03 08:03:34;;;;;;;;;;;;;;;20.69;70.10;99680.22;4165124;34;34309;-76
2023/05/03 08:06:02;;;;;;;;;;;;;;;20.74;69.47;99680.87;4164006;34;34488;-75
2023/05/03 08:08:31;;;;;;;;;;;;;;;21.27;67.61;99685.34;4152916;34;34854;-75
2023/05/03 08:10:59;;;;;;;;;;;;;;;21.34;66.56;99685.91;4165053;34;33872;-75
2023/05/03 08:13:26;;;;;;;;;;;;;;;22.04;64.43;99689.44;4165435;34;35090;-76
2023/05/03 08:15:54;;;;;;;;;;;;;;;21.13;65.08;99693.12;4164216;34;36039;-76
2023/05/03 08:18:23;;;;;;;;;;;;;;;21.45;65.55;99693.31;4164814;34;34816;-77
2023/05/03 08:20:51;;;;;;;;;;;;;;;21.59;62.96;99701.47;4164583;34;33466;-76
2023/05/03 08:23:20;;;;;;;;;;;;;;;21.54;65.91;99696.37;4152872;34;34334;-75
2023/05/03 08:25:49;;;;;;;;;;;;;;;20.67;69.49;99695.31;4164861;34;35394;-76
2023/05/03 08:28:16;;;;;;;;;;;;;;;20.79;69.09;99692.94;4163707;34;34774;-77
2023/05/03 08:30:44;;;;;;;;;;;;;;;20.88;69.01;99696.06;4163388;34;34163;-82
2023/05/03 08:33:12;;;;;;;;;;;;;;;20.84;69.44;99695.34;4163814;34;33918;-84
2023/05/03 08:35:41;;;;;;;;;;;;;;;21.07;67.94;99701.34;4164996;34;36164;-81
2023/05/03 08:38:08;;;;;;;;;;;;;;;21.84;68.68;99706.38;4164948;34;35606;-82
2023/05/03 08:40:38;;;;;;;;;;;;;;;21.58;69.32;99703.28;4164793;34;33599;-77
2023/05/03 08:43:07;;;;;;;;;;;;;;;21.94;69.00;99704.13;4164821;34;34099;-80
2023/05/03 08:45:35;;;;;;;;;;;;;;;21.53;66.57;99704.41;4164617;34;34788;-82
2023/05/03 08:48:04;;;;;;;;;;;;;;;21.56;64.91;99704.25;4164859;34;34861;-87
2023/05/03 08:50:36;;;;;;;;;;;;;;;21.06;67.08;99697.84;4152609;34;34208;-78
2023/05/03 08:53:04;;;;;;;;;;;;;;;21.61;62.86;99704.03;4163813;34;34297;-86
2023/05/03 08:55:32;;;;;;;;;;;;;;;21.64;62.69;99710.03;4152622;34;35082;-80
2023/05/03 08:58:00;;;;;;;;;;;;;;;21.32;63.61;99709.81;4164821;34;35558;-80
2023/05/03 09:00:28;;;;;;;;;;;;;;;21.38;64.92;99712.16;4152571;34;34282;-78
2023/05/03 09:02:57;;;;;;;;;;;;;;;21.83;64.83;99715.28;4164778;34;34963;-79
2023/05/03 09:05:37;;;;;;;;;;;;;;;22.25;64.56;99705.13;4162954;34;36230;-75
2023/05/03 09:08:07;;;;;;;;;;;;;;;22.51;63.40;99712.59;4164544;34;34881;-84
2023/05/03 09:10:41;;;;;;;;;;;;;;;22.00;64.83;99705.59;4164810;34;33444;-77
2023/05/03 09:13:10;;;;;;;;;;;;;;;21.62;65.57;99705.75;4164668;34;34368;-83
2023/05/03 09:15:38;;;;;;;;;;;;;;;22.11;64.99;99706.75;4152537;34;36140;-79
2023/05/03 09:18:16;;;;;;;;;;;;;;;21.91;63.88;99713.06;4141400;34;33925;-87
2023/05/03 09:20:51;;;;;;;;;;;;;;;21.64;65.20;99711.84;4141500;34;32995;-90
2023/05/03 09:23:25;;;;;;;;;;;;;;;21.63;64.20;99708.31;4164514;34;34206;-88
2023/05/03 09:25:54;;;;;;;;;;;;;;;21.32;66.04;99708.97;4164624;34;35314;-89
2023/05/03 09:28:22;;;;;;;;;;;;;;;21.57;64.93;99714.78;4164558;34;35558;-82
2023/05/03 09:30:50;;;;;;;;;;;;;;;21.36;68.55;99705.22;4152329;34;34097;-82
2023/05/03 09:33:23;;;;;;;;;;;;;;;21.32;66.65;99708.97;4152324;34;32996;-84
2023/05/03 09:36:10;;;;;;;;;;;;;;;21.40;69.30;99712.94;4164309;34;36271;-85
2023/05/03 09:38:38;;;;;;;;;;;;;;;21.02;68.45;99705.09;4164509;34;34715;-76
2023/05/03 09:41:06;;;;;;;;;;;;;;;21.39;68.27;99708.59;4163909;34;34166;-81
2023/05/03 09:43:34;;;;;;;;;;;;;;;21.31;67.09;99712.56;4152280;34;34202;-83
2023/05/03 09:46:07;;;;;;;;;;;;;;;21.35;66.16;99709.69;4152067;34;35245;-84
2023/05/03 09:48:35;;;;;;;;;;;;;;;21.04;67.42;99704.16;4152064;34;35578;-81
2023/05/03 09:51:06;;;;;;;;;;;;;;;21.44;63.15;99705.69;4164371;34;33509;-83
2023/05/03 09:53:35;;;;;;;;;;;;;;;21.38;66.98;99708.66;4161470;34;32737;-85
2023/05/03 09:56:07;;;;;;;;;;;;;;;21.54;65.71;99703.50;4150247;34;34542;-83
2023/05/03 09:58:35;;;;;;;;;;;;;;;20.56;69.09;99712.50;4148997;34;34717;-76
2023/05/03 10:01:03;;;;;;;;;;;;;;;21.35;67.36;99714.09;4147105;34;33286;-82
2023/05/03 10:03:40;;;;;;;;;;;;;;;21.09;66.30;99704.78;4147725;34;34284;-87
2023/05/03 10:06:28;;;;;;;;;;;;;;;20.62;66.58;99699.03;4149783;34;35447;-77
2023/05/03 10:09:04;;;;;;;;;;;;;;;20.54;69.01;99703.81;4149709;34;35453;-84
2023/05/03 10:11:33;;;;;;;;;;;;;;;20.79;67.13;99695.59;4148909;34;33126;-83
2023/05/03 10:14:01;;;;;;;;;;;;;;;20.48;67.87;99698.78;4148501;34;34195;-82
2023/05/03 10:16:30;;;;;;;;;;;;;;;20.31;68.49;99703.97;4148366;34;35914;-76
2023/05/03 10:19:02;;;;;;;;;;;;;;;20.39;68.00;99700.06;4148957;34;34680;-75
2023/05/03 10:21:42;;;;;;;;;;;;;;;20.57;66.40;99701.00;4148154;34;33565;-82
2023/05/03 10:24:14;;;;;;;;;;;;;;;20.55;67.57;99694.91;4149466;34;34281;-78
2023/05/03 10:26:46;;;;;;;;;;;;;;;20.44;67.45;99695.41;4147907;34;35427;-82
2023/05/03 10:29:50;;;;;;;;;;;;;;;20.33;69.77;99691.53;4148291;34;34498;-82
2023/05/03 10:32:30;;;;;;;;;;;;;;;21.19;64.89;99698.09;4143575;34;34258;-77
2023/05/03 10:35:00;;;;;;;;;;;;;;;20.75;70.96;99694.00;4159803;34;34205;-80
2023/05/03 10:37:32;;;;;;;;;;;;;;;21.04;69.31;99694.44;4149263;34;34545;-78
2023/05/03 10:40:10;;;;;;;;;;;;;;;21.23;65.84;99697.03;4164357;34;33904;-80
2023/05/03 10:42:38;;;;;;;;;;;;;;;20.64;68.25;99691.88;4170868;34;33569;-81
2023/05/03 10:45:07;;;;;;;;;;;;;;;21.10;66.36;99687.97;4161799;34;33732;-75
2023/05/03 10:47:35;;;;;;;;;;;;;;;21.06;65.69;99687.25;4150397;34;34907;-77
2023/05/03 10:50:15;;;;;;;;;;;;;;;21.14;67.96;99681.59;4158162;34;35512;-75
2023/05/03 10:52:44;;;;;;;;;;;;;;;20.45;68.97;99685.69;4161061;34;34153;-75
2023/05/03 10:55:13;;;;;;;;;;;;;;;20.50;68.11;99674.91;4150922;34;34210;-77
2023/05/03 10:57:45;;;;;;;;;;;;;;;20.37;71.08;99678.09;4154376;34;35218;-80
2023/05/03 11:00:16;;;;;;;;;;;;;;;20.92;68.53;99685.28;4159917;34;35337;-75
2023/05/03 11:02:47;;;;;;;;;;;;;;;20.35;68.11;99679.97;4158893;34;33570;-75
2023/05/03 11:05:16;;;;;;;;;;;;;;;20.47;68.07;99686.47;4157176;34;34974;-77
2023/05/03 11:07:43;;;;;;;;;;;;;;;20.70;67.71;99681.94;4157127;34;34989;-76
2023/05/03 11:10:17;;;;;;;;;;;;;;;20.46;68.42;99682.13;4152244;34;34519;-80
2023/05/03 11:12:45;;;;;;;;;;;;;;;19.97;70.93;99684.31;4159765;34;33769;-76
2023/05/03 11:15:13;;;;;;;;;;;;;;;19.93;71.31;99685.41;4142457;34;33615;-81
2023/05/03 11:17:41;;;;;;;;;;;;;;;20.35;70.20;99689.69;4154844;34;35400;-81
2023/05/03 11:20:10;;;;;;;;;;;;;;;20.48;68.10;99685.53;4152183;34;34632;-78
2023/05/03 11:22:38;;;;;;;;;;;;;;;20.03;70.39;99690.22;4165593;34;33427;-77
2023/05/03 11:25:06;;;;;;;;;;;;;;;19.88;71.22;99691.72;4153141;34;35097;-81
2023/05/03 11:27:34;;;;;;;;;;;;;;;19.67;72.51;99689.97;4150675;34;34976;-82
2023/05/03 11:30:02;;;;;;;;;;;;;;;19.62;73.22;99690.16;4151808;34;34645;-83
2023/05/03 11:32:30;;;;;;;;;;;;;;;19.55;74.00;99685.22;4150496;34;32648;-80
2023/05/03 11:35:01;;;;;;;;;;;;;;;19.68;73.86;99684.62;4152900;34;34979;-77
2023/05/03 11:37:31;;;;;;;;;;;;;;;19.41;75.82;99686.66;4163903;34;33706;-79
2023/05/03 11:39:59;;;;;;;;;;;;;;;19.74;73.76;99688.81;4164042;34;34394;-76
2023/05/03 11:42:27;;;;;;;;;;;;;;;20.37;70.99;99691.34;4164949;34;33507;-79
2023/05/03 11:44:57;;;;;;;;;;;;;;;20.73;68.98;99681.78;4153032;34;35162;-79
2023/05/03 11:47:26;;;;;;;;;;;;;;;20.42;69.86;99685.84;4163268;34;35422;-78
2023/05/03 11:49:54;;;;;;;;;;;;;;;19.71;73.54;99686.28;4156663;34;34876;-77
2023/05/03 11:52:23;;;;;;;;;;;;;;;20.12;72.75;99688.94;4167434;34;34197;-79
2023/05/03 11:54:51;;;;;;;;;;;;;;;19.83;73.15;99685.78;4165514;34;34330;-78
2023/05/03 11:57:20;;;;;;;;;;;;;;;19.48;76.30;99682.84;4165268;34;35260;-83
2023/05/03 11:59:48;;;;;;;;;;;;;;;19.84;74.12;99687.50;4153283;34;35321;-78
2023/05/03 12:02:17;;;;;;;;;;;;;;;19.66;74.11;99686.47;4161481;34;32922;-80
2023/05/03 12:04:46;;;;;;;;;;;;;;;19.46;74.14;99687.31;4166225;34;34353;-76
2023/05/03 12:07:14;;;;;;;;;;;;;;;18.94;77.42;99686.81;4178680;34;35153;-76
2023/05/03 12:09:46;;;;;;;;;;;;;;;19.51;73.56;99681.84;4166563;34;34354;-78
2023/05/03 12:12:32;;;;;;;;;;;;;;;19.65;73.51;99689.19;4177413;34;34195;-78
2023/05/03 12:15:05;;;;;;;;;;;;;;;19.27;74.96;99689.88;4178665;34;34964;-75
2023/05/03 12:17:35;;;;;;;;;;;;;;;19.13;75.29;99687.78;4177223;34;35041;-77
2023/05/03 12:20:15;;;;;;;;;;;;;;;18.81;75.43;99685.53;4177184;34;33907;-84
2023/05/03 12:22:53;;;;;;;;;;;;;;;18.44;76.50;99681.66;4176907;34;31911;-75
2023/05/03 12:25:26;;;;;;;;;;;;;;;18.38;77.37;99678.34;4176954;34;33711;-77
2023/05/03 12:28:01;;;;;;;;;;;;;;;18.62;76.11;99683.63;4168496;34;35574;-79
2023/05/03 12:30:47;;;;;;;;;;;;;;;18.41;76.68;99680.00;4150073;34;34663;-75
2023/05/03 12:33:20;;;;;;;;;;;;;;;18.36;77.93;99674.91;4162437;34;34260;-79
2023/05/03 12:35:50;;;;;;;;;;;;;;;18.32;78.18;99669.81;4174284;34;34178;-80
2023/05/03 12:38:21;;;;;;;;;;;;;;;18.65;77.02;99670.28;4151837;34;35760;-79
2023/05/03 12:40:52;;;;;;;;;;;;;;;18.77;75.41;99668.97;4163872;34;34243;-79
2023/05/03 12:43:20;;;;;;;;;;;;;;;18.56;76.15;99670.66;4176858;34;32130;-79
2023/05/03 12:45:48;;;;;;;;;;;;;;;18.64;76.50;99668.59;4165570;34;34031;-76
2023/05/03 12:48:36;;;;;;;;;;;;;;;18.36;77.11;99672.25;4171537;34;35357;-79
2023/05/03 12:51:04;;;;;;;;;;;;;;;18.23;80.79;99663.09;4156139;34;34757;-78
2023/05/03 12:53:36;;;;;;;;;;;;;;;18.12;80.23;99657.34;4156215;34;33197;-78
2023/05/03 12:56:05;;;;;;;;;;;;;;;17.84;81.40;99658.31;4150631;34;35034;-78